Time;durP1;ratioP1;P1;durP2;ratioP2;P2;SDS_P1;SDS_P2;PMS_P1;PMS_P2;Temp;Humidity;BMP_temperature;BMP_pressure;BME280_temperature;BME280_humidity;BME280_pressure;Samples;Min_cycle;Max_cycle;Signal;HPM_P1;HPM_P2
2023/12/10 00:01:32;;;;;;;22.65;16.08;;;;;;;2.87;100.00;99415.63;7395468;19;20011;-68
2023/12/10 00:04:00;;;;;;;22.70;15.30;;;;;;;2.83;100.00;99412.25;7394011;19;20477;-67
2023/12/10 00:06:29;;;;;;;26.33;16.55;;;;;;;2.84;100.00;99413.09;7394237;19;20015;-67
2023/12/10 00:08:58;;;;;;;22.88;16.67;;;;;;;2.81;100.00;99411.41;7395595;19;20007;-67
2023/12/10 00:11:26;;;;;;;30.00;17.92;;;;;;;2.80;100.00;99399.31;7395050;19;20492;-67
2023/12/10 00:13:55;;;;;;;23.70;16.27;;;;;;;2.79;100.00;99407.13;7394233;19;20015;-67
2023/12/10 00:16:26;;;;;;;26.58;16.30;;;;;;;2.76;100.00;99408.00;7395174;19;20509;-67
2023/12/10 00:18:54;;;;;;;24.02;16.95;;;;;;;2.75;100.00;99414.06;7399766;19;20010;-67
2023/12/10 00:21:23;;;;;;;23.23;15.68;;;;;;;2.74;100.00;99410.63;7399522;19;20375;-68
2023/12/10 00:23:51;;;;;;;27.52;16.92;;;;;;;2.72;100.00;99412.34;7400923;19;20006;-67
2023/12/10 00:26:20;;;;;;;25.98;16.33;;;;;;;2.71;100.00;99405.47;7399596;19;20031;-67
2023/12/10 00:28:49;;;;;;;24.90;16.83;;;;;;;2.71;100.00;99405.47;7399430;19;20013;-67
2023/12/10 00:31:18;;;;;;;25.02;16.02;;;;;;;2.70;100.00;99405.47;7402591;19;20018;-67
2023/12/10 00:33:49;;;;;;;24.55;15.90;;;;;;;2.70;100.00;99414.09;7399597;19;20037;-67
2023/12/10 00:36:18;;;;;;;24.75;16.55;;;;;;;2.70;100.00;99408.91;7402782;19;20010;-67
2023/12/10 00:38:47;;;;;;;22.77;14.77;;;;;;;2.70;100.00;99410.66;7402434;19;20021;-67
2023/12/10 00:41:15;;;;;;;20.88;15.15;;;;;;;2.67;100.00;99406.38;7401968;19;20032;-67
2023/12/10 00:43:45;;;;;;;23.52;15.43;;;;;;;2.68;100.00;99404.63;7400612;19;20018;-67
2023/12/10 00:46:13;;;;;;;25.35;16.83;;;;;;;2.68;100.00;99408.09;7400884;19;20014;-67
2023/12/10 00:48:43;;;;;;;25.48;14.65;;;;;;;2.67;100.00;99408.97;7402074;19;20019;-67
2023/12/10 00:51:23;;;;;;;19.98;14.00;;;;;;;2.66;100.00;99404.66;7406228;19;20014;-67
2023/12/10 00:53:52;;;;;;;22.40;13.45;;;;;;;2.65;100.00;99395.16;7399192;19;20019;-67
2023/12/10 00:56:21;;;;;;;19.92;13.98;;;;;;;2.63;100.00;99390.88;7401811;19;20037;-67
2023/12/10 00:58:49;;;;;;;18.90;13.20;;;;;;;2.62;100.00;99387.44;7401454;19;20013;-67
2023/12/10 01:01:18;;;;;;;21.38;13.65;;;;;;;2.60;100.00;99392.66;7401229;19;20014;-67
2023/12/10 01:03:47;;;;;;;17.70;12.60;;;;;;;2.60;100.00;99389.19;7399903;19;20018;-66
2023/12/10 01:06:15;;;;;;;18.98;13.15;;;;;;;2.59;100.00;99393.50;7400775;19;20011;-67
2023/12/10 01:08:46;;;;;;;18.20;12.63;;;;;;;2.56;100.00;99396.13;7398390;19;20011;-67
2023/12/10 01:11:15;;;;;;;17.35;12.40;;;;;;;2.54;100.00;99402.19;7401743;19;20027;-67
2023/12/10 01:13:43;;;;;;;18.70;12.48;;;;;;;2.52;100.00;99391.00;7399150;19;20445;-67
2023/12/10 01:16:16;;;;;;;19.90;12.55;;;;;;;2.51;100.00;99397.91;7398170;19;20484;-67
2023/12/10 01:18:46;;;;;;;18.70;12.70;;;;;;;2.50;100.00;99418.63;7400842;19;20491;-67
2023/12/10 01:21:15;;;;;;;16.33;12.07;;;;;;;2.49;100.00;99419.50;7401550;19;20022;-67
2023/12/10 01:23:46;;;;;;;16.02;11.77;;;;;;;2.47;100.00;99419.53;7399448;19;20018;-66
2023/12/10 01:26:15;;;;;;;18.67;11.73;;;;;;;2.46;100.00;99410.03;7400716;19;20014;-67
2023/12/10 01:28:43;;;;;;;17.40;12.10;;;;;;;2.45;100.00;99413.50;7398618;19;20352;-67
2023/12/10 01:31:12;;;;;;;16.15;10.57;;;;;;;2.43;100.00;99407.50;7400239;19;20015;-68
2023/12/10 01:33:40;;;;;;;13.68;10.18;;;;;;;2.41;100.00;99410.09;7399194;19;20040;-67
2023/12/10 01:36:10;;;;;;;16.25;10.45;;;;;;;2.39;100.00;99410.97;7400557;19;20086;-67
2023/12/10 01:38:38;;;;;;;17.95;11.10;;;;;;;2.39;100.00;99414.44;7400474;19;20014;-68
2023/12/10 01:41:10;;;;;;;14.73;10.13;;;;;;;2.37;100.00;99412.72;7400540;19;20007;-67
2023/12/10 01:43:38;;;;;;;14.57;10.23;;;;;;;2.35;100.00;99423.09;7399470;19;20022;-67
2023/12/10 01:46:08;;;;;;;14.02;9.57;;;;;;;2.35;100.00;99409.28;7399567;19;20014;-68
2023/12/10 01:48:37;;;;;;;15.63;9.77;;;;;;;2.32;100.00;99417.94;7400162;19;20111;-67
2023/12/10 01:51:08;;;;;;;12.98;9.43;;;;;;;2.31;100.00;99425.72;7399700;19;20024;-67
2023/12/10 01:53:37;;;;;;;14.88;10.68;;;;;;;2.29;100.00;99423.16;7397594;19;20015;-67
2023/12/10 01:56:10;;;;;;;14.05;10.40;;;;;;;2.28;100.00;99417.09;7397610;19;20032;-67
2023/12/10 01:58:40;;;;;;;17.00;10.57;;;;;;;2.28;100.00;99424.88;7399591;19;20010;-68
2023/12/10 02:01:09;;;;;;;14.90;10.80;;;;;;;2.25;100.00;99419.75;7399389;19;20469;-67
2023/12/10 02:03:38;;;;;;;14.43;9.88;;;;;;;2.24;100.00;99420.59;7397981;19;20015;-67
2023/12/10 02:06:07;;;;;;;14.07;10.38;;;;;;;2.23;100.00;99413.72;7396865;19;20010;-67
2023/12/10 02:08:36;;;;;;;15.02;10.45;;;;;;;2.22;100.00;99424.06;7399588;19;20036;-67
2023/12/10 02:11:04;;;;;;;14.73;10.95;;;;;;;2.20;100.00;99420.63;7399067;19;20476;-68
2023/12/10 02:13:36;;;;;;;13.40;9.95;;;;;;;2.18;100.00;99414.63;7397731;19;20014;-66
2023/12/10 02:16:06;;;;;;;13.77;10.52;;;;;;;2.15;100.00;99415.53;7398927;19;20010;-67
2023/12/10 02:18:35;;;;;;;15.23;10.93;;;;;;;2.14;100.00;99416.38;7398686;19;20078;-68
2023/12/10 02:21:03;;;;;;;15.57;11.23;;;;;;;2.13;100.00;99429.34;7398659;19;20014;-67
2023/12/10 02:23:43;;;;;;;14.32;10.35;;;;;;;2.10;100.00;99418.13;7397821;19;20034;-67
2023/12/10 02:26:14;;;;;;;15.45;11.20;;;;;;;2.09;100.00;99421.59;7398394;19;20506;-67
2023/12/10 02:28:43;;;;;;;15.23;11.15;;;;;;;2.09;100.00;99431.94;7398294;19;20010;-67
2023/12/10 02:31:12;;;;;;;14.85;11.10;;;;;;;2.08;100.00;99425.03;7398669;19;20017;-67
2023/12/10 02:33:41;;;;;;;15.30;10.93;;;;;;;2.06;100.00;99431.09;7397082;19;20017;-68
2023/12/10 02:36:10;;;;;;;17.52;12.90;;;;;;;2.05;100.00;99427.66;7398561;19;20006;-68
2023/12/10 02:38:39;;;;;;;18.27;12.00;;;;;;;2.08;100.00;99437.97;7398452;19;20024;-68
2023/12/10 02:41:08;;;;;;;20.52;13.20;;;;;;;2.11;100.00;99435.38;7398316;19;20038;-68
2023/12/10 02:43:39;;;;;;;18.23;12.52;;;;;;;2.13;100.00;99426.75;7397187;19;20022;-68
2023/12/10 02:46:08;;;;;;;20.42;13.77;;;;;;;2.20;100.00;99439.63;7396688;19;20095;-68
2023/12/10 02:48:37;;;;;;;19.90;13.55;;;;;;;2.25;100.00;99444.75;7395770;19;20011;-68
2023/12/10 02:51:05;;;;;;;17.20;12.85;;;;;;;2.27;100.00;99446.47;7397692;19;20006;-68
2023/12/10 02:53:34;;;;;;;19.92;13.23;;;;;;;2.30;100.00;99450.75;7396307;19;20036;-68
2023/12/10 02:56:02;;;;;;;18.73;13.07;;;;;;;2.32;100.00;99445.56;7397454;19;20359;-68
2023/12/10 02:58:31;;;;;;;16.92;11.75;;;;;;;2.34;100.00;99456.75;7397779;19;20024;-69
2023/12/10 03:01:02;;;;;;;19.73;12.88;;;;;;;2.34;100.00;99457.63;7397793;19;20028;-68
2023/12/10 03:03:30;;;;;;;20.55;13.57;;;;;;;2.35;100.00;99454.16;7396405;19;20010;-68
2023/12/10 03:06:00;;;;;;;18.23;12.32;;;;;;;2.36;100.00;99466.22;7397144;19;20384;-68
2023/12/10 03:08:29;;;;;;;17.23;12.32;;;;;;;2.38;100.00;99461.88;7395489;19;20006;-68
2023/12/10 03:11:04;;;;;;;20.58;12.65;;;;;;;2.39;100.00;99455.84;7401139;19;20492;-68
2023/12/10 03:13:33;;;;;;;17.58;11.63;;;;;;;2.41;100.00;99455.81;7396401;19;20014;-68
2023/12/10 03:16:04;;;;;;;18.40;12.55;;;;;;;2.41;100.00;99466.19;7396840;19;20007;-68
2023/12/10 03:18:33;;;;;;;19.35;12.52;;;;;;;2.41;100.00;99472.22;7396884;19;20362;-68
2023/12/10 03:21:01;;;;;;;18.10;11.93;;;;;;;2.41;100.00;99469.66;7396929;19;20011;-68
2023/12/10 03:23:30;;;;;;;16.92;12.57;;;;;;;2.43;100.00;99478.25;7395747;19;20014;-68
2023/12/10 03:25:58;;;;;;;20.38;12.45;;;;;;;2.43;100.00;99474.81;7396477;19;20367;-68
2023/12/10 03:28:27;;;;;;;21.25;12.68;;;;;;;2.44;100.00;99477.38;7395291;19;20023;-68
2023/12/10 03:30:55;;;;;;;20.10;13.10;;;;;;;2.46;100.00;99479.09;7396440;19;20028;-68
2023/12/10 03:33:27;;;;;;;19.88;11.70;;;;;;;2.47;100.00;99489.44;7395905;19;20027;-68
2023/12/10 03:35:55;;;;;;;20.05;13.05;;;;;;;2.47;100.00;99481.66;7394591;19;20481;-68
2023/12/10 03:38:24;;;;;;;18.88;12.35;;;;;;;2.47;100.00;99489.44;7396169;19;20378;-68
2023/12/10 03:40:52;;;;;;;19.20;12.55;;;;;;;2.48;100.00;99495.44;7396439;19;20018;-69
2023/12/10 03:43:21;;;;;;;19.80;12.60;;;;;;;2.50;100.00;99502.34;7395231;19;20015;-68
2023/12/10 03:45:49;;;;;;;19.17;12.20;;;;;;;2.51;100.00;99496.28;7396340;19;20031;-68
2023/12/10 03:48:18;;;;;;;21.65;13.32;;;;;;;2.52;100.00;99497.16;7394613;19;20011;-68
2023/12/10 03:50:51;;;;;;;19.63;12.80;;;;;;;2.54;100.00;99498.88;7396189;19;20010;-68
2023/12/10 03:53:19;;;;;;;20.65;12.85;;;;;;;2.55;100.00;99494.53;7393132;19;20018;-68
2023/12/10 03:55:48;;;;;;;19.27;12.63;;;;;;;2.58;100.00;99512.66;7396026;19;20010;-68
2023/12/10 03:58:16;;;;;;;20.52;13.45;;;;;;;2.58;100.00;99510.91;7395531;19;20006;-68
2023/12/10 04:00:45;;;;;;;21.17;12.80;;;;;;;2.60;100.00;99513.47;7395863;19;20015;-68
2023/12/10 04:03:13;;;;;;;19.95;13.15;;;;;;;2.60;100.00;99521.25;7394682;19;20010;-67
2023/12/10 04:05:42;;;;;;;18.92;12.68;;;;;;;2.59;100.00;99525.56;7395206;19;20015;-68
2023/12/10 04:08:13;;;;;;;22.75;13.88;;;;;;;2.61;100.00;99528.16;7394574;19;20014;-68
2023/12/10 04:10:42;;;;;;;20.23;13.07;;;;;;;2.61;100.00;99522.97;7395254;19;20027;-68
2023/12/10 04:13:10;;;;;;;23.83;13.48;;;;;;;2.63;100.00;99526.41;7393646;19;20039;-68
2023/12/10 04:15:39;;;;;;;21.38;13.00;;;;;;;2.63;100.00;99528.13;7395484;19;20011;-68
2023/12/10 04:18:07;;;;;;;20.80;12.65;;;;;;;2.63;100.00;99526.41;7395448;19;20006;-68
2023/12/10 04:20:36;;;;;;;23.23;13.77;;;;;;;2.67;100.00;99541.03;7395300;19;20077;-68
2023/12/10 04:23:05;;;;;;;23.25;13.70;;;;;;;2.67;100.00;99533.28;7393496;19;20019;-68
2023/12/10 04:25:36;;;;;;;24.50;13.73;;;;;;;2.69;100.00;99531.53;7395351;19;20010;-69
2023/12/10 04:28:06;;;;;;;22.00;13.68;;;;;;;2.71;100.00;99540.13;7394649;19;20011;-69
2023/12/10 04:30:35;;;;;;;21.33;13.40;;;;;;;2.71;100.00;99544.47;7395613;19;20015;-68
2023/12/10 04:33:04;;;;;;;20.65;13.30;;;;;;;2.71;100.00;99542.72;7394145;19;20014;-69
2023/12/10 04:35:32;;;;;;;24.50;14.35;;;;;;;2.71;100.00;99558.28;7395050;19;20018;-69
2023/12/10 04:38:01;;;;;;;24.92;14.77;;;;;;;2.72;100.00;99556.56;7394961;19;20018;-68
2023/12/10 04:40:29;;;;;;;24.95;13.70;;;;;;;2.73;100.00;99568.59;7394423;19;20007;-68
2023/12/10 04:43:00;;;;;;;25.83;14.70;;;;;;;2.74;100.00;99573.81;7393751;19;20036;-68
2023/12/10 04:45:29;;;;;;;26.35;14.60;;;;;;;2.76;100.00;99571.19;7395067;19;20014;-68
2023/12/10 04:47:58;;;;;;;24.52;14.70;;;;;;;2.77;100.00;99578.94;7393741;19;20011;-68
2023/12/10 04:50:26;;;;;;;25.20;14.63;;;;;;;2.78;100.00;99574.63;7394608;19;20013;-68
2023/12/10 04:52:55;;;;;;;26.48;14.10;;;;;;;2.80;100.00;99569.44;7393213;19;20015;-68
2023/12/10 04:55:24;;;;;;;27.48;14.55;;;;;;;2.81;100.00;99573.75;7394199;19;20367;-68
2023/12/10 04:57:52;;;;;;;23.13;13.82;;;;;;;2.83;100.00;99577.16;7393964;19;20014;-69
2023/12/10 05:00:30;;;;;;;21.25;13.27;;;;;;;2.84;100.00;99579.72;7394201;19;20022;-70
2023/12/10 05:02:58;;;;;;;22.90;13.25;;;;;;;2.84;100.00;99576.28;7393816;19;20018;-69
2023/12/10 05:05:27;;;;;;;22.23;14.00;;;;;;;2.86;100.00;99582.34;7400822;19;20477;-69
2023/12/10 05:07:56;;;;;;;24.02;14.27;;;;;;;2.88;100.00;99577.97;7398779;19;20019;-69
2023/12/10 05:10:25;;;;;;;25.42;14.23;;;;;;;2.87;100.00;99576.25;7401365;19;20010;-69
2023/12/10 05:12:53;;;;;;;20.88;12.77;;;;;;;2.89;100.00;99584.88;7400295;19;20540;-69
2023/12/10 05:15:24;;;;;;;20.90;12.90;;;;;;;2.89;100.00;99580.59;7398711;19;20014;-70
2023/12/10 05:17:53;;;;;;;24.45;13.65;;;;;;;2.90;100.00;99586.63;7401644;19;20023;-71
2023/12/10 05:20:21;;;;;;;23.15;13.10;;;;;;;2.91;100.00;99586.59;7400678;19;20011;-70
2023/12/10 05:22:50;;;;;;;23.42;12.40;;;;;;;2.90;100.00;99582.28;7398325;19;20023;-68
2023/12/10 05:25:19;;;;;;;23.85;12.60;;;;;;;2.94;100.00;99593.47;7398503;19;20015;-69
2023/12/10 05:27:53;;;;;;;27.30;13.25;;;;;;;2.97;100.00;99587.41;7400617;19;20415;-69
2023/12/10 05:30:24;;;;;;;25.05;13.30;;;;;;;2.99;100.00;99596.03;7402903;19;20016;-68
2023/12/10 05:32:53;;;;;;;26.33;13.05;;;;;;;3.02;100.00;99594.28;7400501;19;20018;-68
2023/12/10 05:35:22;;;;;;;25.80;13.52;;;;;;;3.05;100.00;99595.97;7400421;19;20010;-68
2023/12/10 05:37:50;;;;;;;25.23;12.93;;;;;;;3.08;100.00;99601.13;7400323;19;20010;-67
2023/12/10 05:40:26;;;;;;;27.80;13.88;;;;;;;3.12;100.00;99607.13;7400410;19;20011;-69
2023/12/10 05:42:54;;;;;;;23.50;12.45;;;;;;;3.12;100.00;99614.91;7399549;19;20010;-71
2023/12/10 05:45:27;;;;;;;24.52;12.98;;;;;;;3.19;100.00;99620.03;7400585;19;20014;-70
2023/12/10 05:47:55;;;;;;;22.17;12.20;;;;;;;3.22;100.00;99632.97;7398284;19;20044;-70
2023/12/10 05:50:24;;;;;;;25.67;12.70;;;;;;;3.24;100.00;99633.78;7399619;19;20006;-69
2023/12/10 05:52:53;;;;;;;26.05;13.13;;;;;;;3.29;100.00;99645.88;7398290;19;20018;-68
2023/12/10 05:55:21;;;;;;;28.02;12.55;;;;;;;3.32;100.00;99651.03;7400372;19;20015;-68
2023/12/10 05:57:50;;;;;;;29.00;12.65;;;;;;;3.35;100.00;99658.75;7399853;19;20011;-68
2023/12/10 06:00:19;;;;;;;29.85;13.55;;;;;;;3.37;100.00;99660.44;7399321;19;20008;-68
2023/12/10 06:02:51;;;;;;;27.35;12.13;;;;;;;3.40;100.00;99668.22;7399240;19;20028;-68
2023/12/10 06:05:19;;;;;;;29.45;11.35;;;;;;;3.41;100.00;99667.34;7400011;19;20015;-69
2023/12/10 06:07:48;;;;;;;32.92;12.35;;;;;;;3.46;100.00;99674.22;7398599;19;20010;-68
2023/12/10 06:10:16;;;;;;;26.10;12.38;;;;;;;3.47;100.00;99666.41;7399979;19;20040;-68
2023/12/10 06:12:45;;;;;;;24.63;12.15;;;;;;;3.51;100.00;99664.66;7398940;19;20022;-68
2023/12/10 06:15:14;;;;;;;31.30;11.50;;;;;;;3.53;100.00;99670.69;7398277;19;20027;-69
2023/12/10 06:17:42;;;;;;;26.70;11.40;;;;;;;3.57;100.00;99672.38;7398805;19;20003;-69
2023/12/10 06:20:14;;;;;;;24.40;11.75;;;;;;;3.61;100.00;99676.66;7398734;19;20007;-69
2023/12/10 06:22:43;;;;;;;29.00;12.88;;;;;;;3.65;100.00;99670.59;7398411;19;20007;-69
2023/12/10 06:25:11;;;;;;;37.17;14.18;;;;;;;3.70;100.00;99676.56;7398863;19;20015;-68
2023/12/10 06:27:40;;;;;;;27.55;12.23;;;;;;;3.73;100.00;99691.25;7398222;19;20023;-69
2023/12/10 06:30:09;;;;;;;31.95;12.88;;;;;;;3.78;100.00;99688.59;7398903;19;20019;-69
2023/12/10 06:32:38;;;;;;;37.05;13.40;;;;;;;3.83;100.00;99695.47;7397953;19;20481;-68
2023/12/10 06:35:08;;;;;;;32.67;11.93;;;;;;;3.87;100.00;99680.72;7396473;19;20010;-68
2023/12/10 06:37:39;;;;;;;26.73;10.40;;;;;;;3.91;100.00;99692.78;7398363;19;20010;-69
2023/12/10 06:40:09;;;;;;;31.13;10.30;;;;;;;3.98;100.00;99701.34;7398793;19;20029;-69
2023/12/10 06:42:38;;;;;;;22.92;9.85;;;;;;;4.01;100.00;99707.34;7397926;19;20011;-69
2023/12/10 06:45:08;;;;;;;25.73;8.40;;;;;;;4.05;100.00;99709.03;7397874;19;20028;-69
2023/12/10 06:47:36;;;;;;;20.70;8.20;;;;;;;4.07;100.00;99715.06;7397965;19;20017;-69
2023/12/10 06:50:06;;;;;;;21.42;7.72;;;;;;;4.12;100.00;99711.56;7397974;19;20028;-69
2023/12/10 06:52:34;;;;;;;20.23;6.15;;;;;;;4.15;100.00;99722.78;7397847;19;20040;-69
2023/12/10 06:55:06;;;;;;;26.27;7.45;;;;;;;4.19;100.00;99716.66;7396195;19;20014;-69
2023/12/10 06:57:35;;;;;;;21.95;5.70;;;;;;;4.23;100.00;99715.75;7398292;19;20040;-69
2023/12/10 07:00:04;;;;;;;18.98;5.72;;;;;;;4.28;100.00;99726.06;7397223;19;20576;-69
2023/12/10 07:02:32;;;;;;;13.13;5.78;;;;;;;4.33;100.00;99731.22;7395295;19;20006;-69
2023/12/10 07:05:01;;;;;;;13.68;5.05;;;;;;;4.35;100.00;99734.66;7397419;19;20032;-68
2023/12/10 07:07:29;;;;;;;16.95;4.65;;;;;;;4.38;100.00;99738.06;7397057;19;20014;-68
2023/12/10 07:09:58;;;;;;;11.93;4.60;;;;;;;4.40;100.00;99725.94;7395100;19;20380;-68
2023/12/10 07:12:29;;;;;;;16.10;4.55;;;;;;;4.43;100.00;99726.78;7396734;19;20511;-68
2023/12/10 07:14:58;;;;;;;18.27;5.03;;;;;;;4.45;100.00;99730.19;7396887;19;20010;-68
2023/12/10 07:17:26;;;;;;;14.98;5.65;;;;;;;4.46;100.00;99734.50;7396694;19;20014;-68
2023/12/10 07:19:55;;;;;;;16.80;5.28;;;;;;;4.48;100.00;99744.00;7397328;19;20018;-69
2023/12/10 07:22:23;;;;;;;15.23;5.25;;;;;;;4.50;100.00;99734.47;7395174;19;20022;-69
2023/12/10 07:24:52;;;;;;;16.70;5.10;;;;;;;4.52;100.00;99745.69;7396766;19;20019;-68
2023/12/10 07:27:20;;;;;;;12.63;4.38;;;;;;;4.55;100.00;99753.44;7392884;19;20019;-69
2023/12/10 07:29:51;;;;;;;15.65;4.45;;;;;;;4.57;100.00;99750.81;7394866;19;20011;-69
2023/12/10 07:32:20;;;;;;;17.75;4.85;;;;;;;4.60;100.00;99755.13;7397420;19;20018;-69
2023/12/10 07:34:48;;;;;;;13.82;4.47;;;;;;;4.62;100.00;99758.56;7396575;19;20011;-69
2023/12/10 07:37:17;;;;;;;13.00;4.55;;;;;;;4.65;100.00;99763.72;7395925;19;20010;-69
2023/12/10 07:39:45;;;;;;;16.75;4.55;;;;;;;4.67;100.00;99773.19;7396086;19;20010;-69
2023/12/10 07:42:14;;;;;;;11.85;4.45;;;;;;;4.70;100.00;99761.91;7396407;19;20010;-69
2023/12/10 07:44:43;;;;;;;12.90;4.53;;;;;;;4.71;100.00;99764.50;7394494;19;20427;-69
2023/12/10 07:47:14;;;;;;;13.68;4.30;;;;;;;4.73;100.00;99757.53;7396885;19;20017;-69
2023/12/10 07:49:42;;;;;;;13.52;4.70;;;;;;;4.78;100.00;99760.06;7397337;19;20011;-69
2023/12/10 07:52:11;;;;;;;10.95;3.88;;;;;;;4.81;100.00;99756.56;7395786;19;20369;-68
2023/12/10 07:54:40;;;;;;;17.67;4.28;;;;;;;4.84;100.00;99767.78;7394013;19;20018;-69
2023/12/10 07:57:09;;;;;;;16.52;4.25;;;;;;;4.87;100.00;99774.69;7395638;19;20485;-68
2023/12/10 07:59:37;;;;;;;21.00;4.63;;;;;;;4.91;100.00;99765.97;7394388;19;20018;-68
2023/12/10 08:02:06;;;;;;;21.67;4.40;;;;;;;4.95;100.00;99772.81;7396097;19;20018;-69
2023/12/10 08:04:38;;;;;;;13.25;4.45;;;;;;;4.96;100.00;99776.31;7394252;19;20022;-69
2023/12/10 08:07:07;;;;;;;21.73;5.05;;;;;;;4.99;100.00;99781.44;7396147;19;20010;-69
2023/12/10 08:09:35;;;;;;;20.15;4.57;;;;;;;5.01;100.00;99783.13;7394516;19;20030;-69
2023/12/10 08:12:04;;;;;;;16.83;4.07;;;;;;;5.03;100.00;99778.78;7395227;19;20501;-70
2023/12/10 08:14:32;;;;;;;12.35;4.03;;;;;;;5.06;100.00;99783.94;7393815;19;20541;-68
2023/12/10 08:17:01;;;;;;;12.05;4.40;;;;;;;5.08;100.00;99791.72;7395648;19;20040;-70
2023/12/10 08:19:29;;;;;;;18.70;4.43;;;;;;;5.14;100.00;99793.38;7394898;19;20036;-69
2023/12/10 08:22:01;;;;;;;12.52;3.90;;;;;;;5.17;100.00;99798.53;7395292;19;20027;-69
2023/12/10 08:24:30;;;;;;;16.15;4.65;;;;;;;5.20;100.00;99798.47;7393275;19;20011;-68
2023/12/10 08:26:59;;;;;;;18.90;4.68;;;;;;;5.24;100.00;99800.16;7395233;19;20014;-68
2023/12/10 08:29:27;;;;;;;22.65;6.05;;;;;;;5.27;100.00;99789.72;7394103;19;20011;-68
2023/12/10 08:31:56;;;;;;;17.70;4.82;;;;;;;5.30;100.00;99794.00;7392908;19;20400;-67
2023/12/10 08:34:47;;;;;;;27.83;11.82;;;;;;;5.34;100.00;99806.06;7392950;19;20014;-68
2023/12/10 08:37:18;;;;;;;26.98;7.45;;;;;;;5.37;100.00;99796.47;7394487;19;20367;-68
2023/12/10 08:39:51;;;;;;;17.20;5.38;;;;;;;5.41;100.00;99797.31;7402977;19;20007;-68
2023/12/10 08:42:19;;;;;;;21.75;5.47;;;;;;;5.45;100.00;99798.13;7402164;19;20516;-68
2023/12/10 08:44:48;;;;;;;22.58;5.60;;;;;;;5.47;100.00;99807.63;7402316;19;20032;-68
2023/12/10 08:47:16;;;;;;;22.40;4.80;;;;;;;5.50;100.00;99802.34;7402011;19;20501;-68
2023/12/10 08:49:45;;;;;;;21.90;4.03;;;;;;;5.54;100.00;99808.38;7400225;19;20018;-68
2023/12/10 08:52:13;;;;;;;26.30;5.22;;;;;;;5.59;100.00;99806.53;7402118;19;20014;-68
2023/12/10 08:54:51;;;;;;;22.20;4.78;;;;;;;5.63;100.00;99800.41;7398230;19;20018;-68
2023/12/10 08:57:19;;;;;;;21.48;4.88;;;;;;;5.69;100.00;99807.25;7402033;19;20032;-69
2023/12/10 08:59:48;;;;;;;28.30;5.60;;;;;;;5.74;100.00;99802.84;7398577;19;20023;-68
2023/12/10 09:02:16;;;;;;;23.23;4.57;;;;;;;5.80;100.00;99807.06;7401790;19;20014;-69
2023/12/10 09:04:46;;;;;;;27.77;5.10;;;;;;;5.85;100.00;99813.91;7398323;19;20033;-70
2023/12/10 09:07:15;;;;;;;18.45;3.75;;;;;;;5.91;100.00;99825.97;7400976;19;20023;-69
2023/12/10 09:09:43;;;;;;;19.23;4.22;;;;;;;5.96;100.00;99831.09;7399484;19;20546;-69
2023/12/10 09:12:14;;;;;;;19.17;3.60;;;;;;;6.00;100.00;99823.25;7401296;19;20014;-69
2023/12/10 09:14:49;;;;;;;20.17;4.05;;;;;;;6.06;100.00;99829.22;7398530;19;20027;-69
2023/12/10 09:17:18;;;;;;;20.60;4.90;;;;;;;6.10;100.00;99830.88;7400726;19;20028;-69
2023/12/10 09:19:46;;;;;;;22.63;3.58;;;;;;;6.14;100.00;99841.22;7400933;19;20016;-69
2023/12/10 09:22:15;;;;;;;20.77;3.40;;;;;;;6.19;100.00;99841.13;7400507;19;20006;-69
2023/12/10 09:24:44;;;;;;;20.75;3.30;;;;;;;6.24;100.00;99843.66;7397901;19;20014;-69
2023/12/10 09:27:15;;;;;;;19.40;3.80;;;;;;;6.27;100.00;99835.78;7400986;19;20019;-69
2023/12/10 09:29:45;;;;;;;18.20;4.65;;;;;;;6.29;100.00;99840.09;7399661;19;20006;-68
2023/12/10 09:32:16;;;;;;;24.63;5.05;;;;;;;6.31;100.00;99851.31;7400341;19;20010;-68
2023/12/10 09:34:45;;;;;;;19.38;4.10;;;;;;;6.34;100.00;99837.38;7397972;19;20014;-68
2023/12/10 09:37:14;;;;;;;20.08;4.55;;;;;;;6.36;100.00;99846.03;7400202;19;20480;-68
2023/12/10 09:39:42;;;;;;;21.27;3.67;;;;;;;6.35;100.00;99847.75;7400648;19;20018;-68
2023/12/10 09:42:12;;;;;;;17.52;3.90;;;;;;;6.37;100.00;99842.56;7401233;19;20011;-69
2023/12/10 09:44:43;;;;;;;20.70;4.78;;;;;;;6.39;100.00;99852.94;7397522;19;20477;-69
2023/12/10 09:47:13;;;;;;;21.08;3.53;;;;;;;6.39;100.00;99848.56;7397875;19;20019;-69
2023/12/10 09:49:45;;;;;;;22.48;4.65;;;;;;;6.40;100.00;99865.09;7395835;19;20035;-70
2023/12/10 09:52:13;;;;;;;19.63;3.30;;;;;;;6.39;100.00;99851.19;7400556;19;20372;-70
2023/12/10 09:54:49;;;;;;;22.65;3.22;;;;;;;6.40;100.00;99854.66;7396919;19;20018;-69
2023/12/10 09:57:17;;;;;;;19.17;3.60;;;;;;;6.40;100.00;99859.88;7397235;19;20011;-70
2023/12/10 09:59:48;;;;;;;21.45;3.22;;;;;;;6.39;100.00;99863.34;7397398;19;20011;-69
2023/12/10 10:02:17;;;;;;;21.05;3.65;;;;;;;6.38;100.00;99865.09;7397078;19;20011;-69
2023/12/10 10:04:46;;;;;;;20.75;3.50;;;;;;;6.36;100.00;99859.91;7397226;19;20364;-69
2023/12/10 10:07:15;;;;;;;25.48;3.28;;;;;;;6.33;100.00;99857.38;7399503;19;20011;-69
2023/12/10 10:09:46;;;;;;;22.30;3.67;;;;;;;6.31;100.00;99859.13;7399042;19;20023;-70
2023/12/10 10:12:14;;;;;;;23.00;3.58;;;;;;;6.29;100.00;99857.44;7400219;19;20023;-69
2023/12/10 10:14:59;;;;;;;25.52;5.22;;;;;;;6.26;100.00;99854.91;7397100;19;20014;-70
2023/12/10 10:17:28;;;;;;;23.83;3.78;;;;;;;6.25;100.00;99859.25;7399475;19;20388;-70
2023/12/10 10:19:57;;;;;;;18.75;2.83;;;;;;;6.22;100.00;99861.03;7399205;19;20018;-69
2023/12/10 10:22:26;;;;;;;18.45;3.75;;;;;;;6.20;100.00;99855.88;7396595;19;20010;-69
2023/12/10 10:24:55;;;;;;;23.40;3.15;;;;;;;6.18;100.00;99853.31;7396914;19;20032;-70
2023/12/10 10:27:23;;;;;;;20.48;3.30;;;;;;;6.17;100.00;99850.72;7398536;19;20362;-69
2023/12/10 10:29:53;;;;;;;25.90;4.97;;;;;;;6.17;100.00;99853.34;7397660;19;20019;-70
2023/12/10 10:32:25;;;;;;;22.17;3.17;;;;;;;6.16;100.00;99854.22;7396695;19;20021;-70
2023/12/10 10:34:54;;;;;;;24.90;3.67;;;;;;;6.16;100.00;99854.22;7396981;19;20035;-69
2023/12/10 10:37:24;;;;;;;18.00;3.47;;;;;;;6.14;100.00;99853.38;7398611;19;20018;-70
2023/12/10 10:39:53;;;;;;;23.10;3.42;;;;;;;6.14;100.00;99845.56;7398155;19;20017;-69
2023/12/10 10:42:21;;;;;;;11.05;3.00;;;;;;;6.13;100.00;99852.53;7397994;19;20028;-69
2023/12/10 10:44:50;;;;;;;17.30;3.80;;;;;;;6.13;100.00;99856.84;7398136;19;20031;-69
2023/12/10 10:47:19;;;;;;;17.33;3.55;;;;;;;6.11;100.00;99849.06;7397960;19;20021;-69
2023/12/10 10:49:55;;;;;;;14.43;3.17;;;;;;;6.10;100.00;99855.16;7397428;19;20035;-70
2023/12/10 10:52:27;;;;;;;20.70;2.90;;;;;;;6.10;100.00;99843.91;7398096;19;20371;-70
2023/12/10 10:54:57;;;;;;;22.67;3.35;;;;;;;6.11;100.00;99850.84;7396214;19;20046;-69
2023/12/10 10:57:34;;;;;;;18.63;3.65;;;;;;;6.10;100.00;99852.56;7397960;19;20509;-69
2023/12/10 11:00:02;;;;;;;18.35;3.58;;;;;;;6.12;100.00;99850.81;7398209;19;20021;-70
2023/12/10 11:02:33;;;;;;;18.60;3.30;;;;;;;6.13;100.00;99844.72;7395133;19;20025;-70
2023/12/10 11:05:04;;;;;;;17.00;3.17;;;;;;;6.13;100.00;99843.84;7397678;19;20023;-70
2023/12/10 11:07:33;;;;;;;18.67;3.30;;;;;;;6.14;100.00;99850.75;7396195;19;20036;-69
2023/12/10 11:10:03;;;;;;;15.73;2.90;;;;;;;6.12;100.00;99844.75;7396320;19;20509;-69
2023/12/10 11:12:48;;;;;;;24.17;3.60;;;;;;;6.13;100.00;99844.72;7397199;19;20028;-69
2023/12/10 11:15:27;;;;;;;13.40;3.10;;;;;;;6.11;100.00;99830.84;7397730;19;20018;-70
2023/12/10 11:18:00;;;;;;;20.92;3.35;;;;;;;6.15;100.00;99845.53;7396847;19;20472;-70
2023/12/10 11:20:36;;;;;;;16.85;2.83;;;;;;;6.15;100.00;99845.53;7396938;19;20014;-70
2023/12/10 11:23:07;;;;;;;25.50;4.45;;;;;;;6.17;100.00;99846.38;7397546;19;20051;-70
2023/12/10 11:25:36;;;;;;;17.58;3.55;;;;;;;6.18;100.00;99836.81;7396575;19;20514;-69
2023/12/10 11:28:10;;;;;;;16.95;3.35;;;;;;;6.19;100.00;99839.41;7396929;19;20014;-70
2023/12/10 11:30:39;;;;;;;19.33;3.95;;;;;;;6.21;100.00;99841.97;7395295;19;20505;-70
2023/12/10 11:33:09;;;;;;;21.65;3.38;;;;;;;6.22;100.00;99843.69;7395705;19;20010;-70